Terminal Aerodrome Forecast
Issued by NWS

Home | Current Version | Previous Version | Text Only | Print | Product List | Glossary On
Versions: 1 2 3 4 5 6 7 8 9 10 11 12 13
000
FTUS46 KMTR 261120
TAFSNS
TAF
KSNS 261120Z 2612/2712 VRB04KT P6SM SCT040 BKN100
     FM261700 28009KT P6SM FEW015 SCT035 BKN050
     FM262000 27011G18KT P6SM FEW018 SCT024 BKN035
     FM270300 27009G16KT P6SM FEW014 BKN022 OVC030
     FM270600 27008KT P6SM FEW008 BKN013 OVC020=

USA.gov is the U.S. government's official web portal to all federal, state and local government web resources and services.